首页
METAR-TAF:

METAR-TAF

机场 :

Roi Et, 泰国

纬度: 16-07-00N, 经度: 103-46-26E, 海拔: 138米

当前天气观测

该预报发布于37分钟前的13:00 UTC
风速5节,风向南转西南,在西转西南之间变化
温度 27°C
湿度 89%
气压 1006 hPa
能见度10公里或以上
少量云层高于2500英尺
多云层高于10000英尺

METAR: VTUV 171300Z 21005KT 180V250 9999 FEW025 BKN100 27/25 Q1006 RETS NOSIG

时间: 20:37 (13:37 UTC)

预报

该预报发布于2小时和37分钟前的11:00 UTC
预报有效从17日的 12点(UTC)到 18日的 12点(UTC)
风速5节,风向南转西南
能見度: 9000
散云层高于3000英尺
短暂存在
从 17日的 12点(UTC)到 17日的 17点(UTC)
少量云层高于1800英尺, 积雨云.
多云层高于3000英尺
雷暴, 小雨
成为
从 18日的 01点(UTC)到 18日的 02点(UTC)
风速5节,风向西

TAF: VTUV 171100Z 1712/1812 21005KT 9000 SCT030 TEMPO 1712/1717 -TSRA FEW018CB BKN030 BECMG 1801/1802 27005KT

超过4000个机场的气象观测和天气预报(METAR&TAF报告)。

可查询的气象台以黄色和红色小点在地图上表示。

将鼠标移到小点上方,可查看气象台名称。

然后点击查看天气观测和预报。

如需切换地图:点击带黑十字的绿色按钮放大地图;点击带横线的绿色按钮缩小地图;或者点击绿色箭头查看邻近地区的地图。


METAR-TAF: